sensor_id;sensor_type;location;lat;lon;timestamp;temperature;humidity
18729;DHT22;9493;51.884;5.188;2022-12-07T00:58:24;4.10;99.90
18729;DHT22;9493;51.884;5.188;2022-12-07T01:00:51;4.10;99.90
18729;DHT22;9493;51.884;5.188;2022-12-07T01:03:18;4.20;99.90
18729;DHT22;9493;51.884;5.188;2022-12-07T01:05:55;4.10;99.90
18729;DHT22;9493;51.884;5.188;2022-12-07T01:08:26;4.00;99.90
18729;DHT22;9493;51.884;5.188;2022-12-07T01:10:58;3.90;99.90
18729;DHT22;9493;51.884;5.188;2022-12-07T01:13:27;3.90;99.90
18729;DHT22;9493;51.884;5.188;2022-12-07T01:15:57;3.80;99.90
18729;DHT22;9493;51.884;5.188;2022-12-07T01:18:29;3.90;99.90
18729;DHT22;9493;51.884;5.188;2022-12-07T03:07:28;4.10;99.90
18729;DHT22;9493;51.884;5.188;2022-12-07T03:10:02;4.20;99.90
18729;DHT22;9493;51.884;5.188;2022-12-07T03:12:42;4.20;99.90
18729;DHT22;9493;51.884;5.188;2022-12-07T03:17:49;4.10;99.90
18729;DHT22;9493;51.884;5.188;2022-12-07T03:20:21;4.00;99.90
18729;DHT22;9493;51.884;5.188;2022-12-07T03:30:49;3.90;99.90
18729;DHT22;9493;51.884;5.188;2022-12-07T03:33:22;3.90;99.90
18729;DHT22;9493;51.884;5.188;2022-12-07T03:36:01;3.80;99.90
18729;DHT22;9493;51.884;5.188;2022-12-07T03:38:36;3.90;99.90
18729;DHT22;9493;51.884;5.188;2022-12-07T03:41:10;4.00;99.90
18729;DHT22;9493;51.884;5.188;2022-12-07T03:43:40;3.90;99.90
18729;DHT22;9493;51.884;5.188;2022-12-07T03:46:19;3.80;99.90
18729;DHT22;9493;51.884;5.188;2022-12-07T03:51:26;3.80;99.90
18729;DHT22;9493;51.884;5.188;2022-12-07T03:54:00;3.90;99.90
18729;DHT22;9493;51.884;5.188;2022-12-07T03:56:30;3.60;99.90
18729;DHT22;9493;51.884;5.188;2022-12-07T03:59:12;3.50;99.90
18729;DHT22;9493;51.884;5.188;2022-12-07T04:02:03;3.60;99.90
18729;DHT22;9493;51.884;5.188;2022-12-07T04:04:30;3.30;99.90
18729;DHT22;9493;51.884;5.188;2022-12-07T04:06:58;3.80;99.90
18729;DHT22;9493;51.884;5.188;2022-12-07T04:09:25;3.50;99.90
18729;DHT22;9493;51.884;5.188;2022-12-07T04:11:52;3.60;99.90
18729;DHT22;9493;51.884;5.188;2022-12-07T04:14:19;3.50;99.90
18729;DHT22;9493;51.884;5.188;2022-12-07T04:16:46;3.50;99.90
18729;DHT22;9493;51.884;5.188;2022-12-07T04:19:19;3.50;99.90
18729;DHT22;9493;51.884;5.188;2022-12-07T04:21:49;3.40;99.90
18729;DHT22;9493;51.884;5.188;2022-12-07T04:24:16;3.50;99.90
18729;DHT22;9493;51.884;5.188;2022-12-07T04:26:46;3.50;99.90
18729;DHT22;9493;51.884;5.188;2022-12-07T04:29:14;3.50;99.90
18729;DHT22;9493;51.884;5.188;2022-12-07T04:31:41;3.60;99.90
18729;DHT22;9493;51.884;5.188;2022-12-07T04:34:09;3.50;99.90
18729;DHT22;9493;51.884;5.188;2022-12-07T04:36:38;3.40;99.90
18729;DHT22;9493;51.884;5.188;2022-12-07T04:39:06;3.30;99.90
18729;DHT22;9493;51.884;5.188;2022-12-07T04:41:33;3.40;99.90
18729;DHT22;9493;51.884;5.188;2022-12-07T04:44:02;3.30;99.90
18729;DHT22;9493;51.884;5.188;2022-12-07T04:46:35;3.30;99.90
18729;DHT22;9493;51.884;5.188;2022-12-07T04:49:02;3.40;99.90
18729;DHT22;9493;51.884;5.188;2022-12-07T04:51:29;3.30;99.90
18729;DHT22;9493;51.884;5.188;2022-12-07T04:53:57;3.30;99.90
18729;DHT22;9493;51.884;5.188;2022-12-07T04:56:25;3.30;99.90
18729;DHT22;9493;51.884;5.188;2022-12-07T04:58:53;3.30;99.90
18729;DHT22;9493;51.884;5.188;2022-12-07T05:01:21;3.40;99.90
18729;DHT22;9493;51.884;5.188;2022-12-07T05:03:48;3.30;99.90
18729;DHT22;9493;51.884;5.188;2022-12-07T05:06:15;3.10;99.90
18729;DHT22;9493;51.884;5.188;2022-12-07T05:08:44;3.20;99.90
18729;DHT22;9493;51.884;5.188;2022-12-07T05:11:13;3.10;99.90
18729;DHT22;9493;51.884;5.188;2022-12-07T05:14:01;2.90;99.90
18729;DHT22;9493;51.884;5.188;2022-12-07T05:16:28;2.90;99.90
18729;DHT22;9493;51.884;5.188;2022-12-07T05:18:55;2.90;99.90
18729;DHT22;9493;51.884;5.188;2022-12-07T05:21:22;2.80;99.90
18729;DHT22;9493;51.884;5.188;2022-12-07T05:23:49;2.80;99.90
18729;DHT22;9493;51.884;5.188;2022-12-07T05:26:18;3.00;99.90
18729;DHT22;9493;51.884;5.188;2022-12-07T05:28:45;2.90;99.90
18729;DHT22;9493;51.884;5.188;2022-12-07T05:31:12;3.00;99.90
18729;DHT22;9493;51.884;5.188;2022-12-07T05:33:39;2.90;99.90
18729;DHT22;9493;51.884;5.188;2022-12-07T05:36:06;2.80;99.90
18729;DHT22;9493;51.884;5.188;2022-12-07T05:38:33;2.80;99.90
18729;DHT22;9493;51.884;5.188;2022-12-07T05:41:01;2.80;99.90
18729;DHT22;9493;51.884;5.188;2022-12-07T05:43:30;2.80;99.90
18729;DHT22;9493;51.884;5.188;2022-12-07T05:45:58;2.80;99.90
18729;DHT22;9493;51.884;5.188;2022-12-07T05:48:25;2.80;99.90
18729;DHT22;9493;51.884;5.188;2022-12-07T05:50:52;3.00;99.90
18729;DHT22;9493;51.884;5.188;2022-12-07T05:53:19;3.10;99.90
18729;DHT22;9493;51.884;5.188;2022-12-07T05:55:46;3.00;99.90
18729;DHT22;9493;51.884;5.188;2022-12-07T05:58:13;3.00;99.90
18729;DHT22;9493;51.884;5.188;2022-12-07T06:00:56;3.30;99.90
18729;DHT22;9493;51.884;5.188;2022-12-07T06:03:23;3.10;99.90
18729;DHT22;9493;51.884;5.188;2022-12-07T06:05:52;3.10;99.90
18729;DHT22;9493;51.884;5.188;2022-12-07T06:08:18;3.00;99.90
18729;DHT22;9493;51.884;5.188;2022-12-07T06:10:47;3.50;99.90
18729;DHT22;9493;51.884;5.188;2022-12-07T06:13:36;3.10;99.90
18729;DHT22;9493;51.884;5.188;2022-12-07T06:16:04;3.20;99.90
18729;DHT22;9493;51.884;5.188;2022-12-07T06:18:31;3.20;99.90
18729;DHT22;9493;51.884;5.188;2022-12-07T06:20:58;3.30;99.90
18729;DHT22;9493;51.884;5.188;2022-12-07T06:23:24;3.40;99.90
18729;DHT22;9493;51.884;5.188;2022-12-07T06:25:51;3.60;99.90
18729;DHT22;9493;51.884;5.188;2022-12-07T06:28:18;3.40;99.90
18729;DHT22;9493;51.884;5.188;2022-12-07T06:30:45;3.50;99.90
18729;DHT22;9493;51.884;5.188;2022-12-07T06:33:13;3.50;99.90
18729;DHT22;9493;51.884;5.188;2022-12-07T06:35:41;3.40;99.90
18729;DHT22;9493;51.884;5.188;2022-12-07T06:38:08;3.40;99.90
18729;DHT22;9493;51.884;5.188;2022-12-07T06:40:34;3.40;99.90
18729;DHT22;9493;51.884;5.188;2022-12-07T06:43:01;3.70;99.90
18729;DHT22;9493;51.884;5.188;2022-12-07T06:45:28;3.50;99.90
18729;DHT22;9493;51.884;5.188;2022-12-07T06:47:55;3.40;99.90
18729;DHT22;9493;51.884;5.188;2022-12-07T06:50:23;3.60;99.90
18729;DHT22;9493;51.884;5.188;2022-12-07T06:52:51;3.40;99.90
18729;DHT22;9493;51.884;5.188;2022-12-07T06:55:18;3.40;99.90
18729;DHT22;9493;51.884;5.188;2022-12-07T06:57:45;3.50;99.90
18729;DHT22;9493;51.884;5.188;2022-12-07T07:00:13;3.40;99.90
18729;DHT22;9493;51.884;5.188;2022-12-07T07:02:40;3.40;99.90
18729;DHT22;9493;51.884;5.188;2022-12-07T07:05:07;3.80;99.90
18729;DHT22;9493;51.884;5.188;2022-12-07T07:07:35;3.40;99.90
18729;DHT22;9493;51.884;5.188;2022-12-07T07:15:13;3.30;99.90
18729;DHT22;9493;51.884;5.188;2022-12-07T07:20:15;3.40;99.90
18729;DHT22;9493;51.884;5.188;2022-12-07T07:22:44;3.40;99.90
18729;DHT22;9493;51.884;5.188;2022-12-07T07:25:10;3.40;99.90
18729;DHT22;9493;51.884;5.188;2022-12-07T07:27:37;3.40;99.90
18729;DHT22;9493;51.884;5.188;2022-12-07T07:30:05;3.30;99.90
18729;DHT22;9493;51.884;5.188;2022-12-07T07:32:32;3.30;99.90
18729;DHT22;9493;51.884;5.188;2022-12-07T07:34:59;3.30;99.90
18729;DHT22;9493;51.884;5.188;2022-12-07T07:37:26;3.60;99.90
18729;DHT22;9493;51.884;5.188;2022-12-07T07:39:54;3.20;99.90
18729;DHT22;9493;51.884;5.188;2022-12-07T07:42:21;3.30;99.90
18729;DHT22;9493;51.884;5.188;2022-12-07T07:44:48;3.40;99.90
18729;DHT22;9493;51.884;5.188;2022-12-07T07:47:14;3.40;99.90
18729;DHT22;9493;51.884;5.188;2022-12-07T07:49:41;3.40;99.90
18729;DHT22;9493;51.884;5.188;2022-12-07T07:52:08;3.50;99.90
18729;DHT22;9493;51.884;5.188;2022-12-07T07:54:35;3.60;99.90
18729;DHT22;9493;51.884;5.188;2022-12-07T07:57:03;3.60;99.90
18729;DHT22;9493;51.884;5.188;2022-12-07T07:59:30;3.60;99.90
18729;DHT22;9493;51.884;5.188;2022-12-07T08:01:57;3.50;99.90
18729;DHT22;9493;51.884;5.188;2022-12-07T08:04:23;3.60;99.90
18729;DHT22;9493;51.884;5.188;2022-12-07T08:06:50;3.60;99.90
18729;DHT22;9493;51.884;5.188;2022-12-07T08:09:17;3.50;99.90
18729;DHT22;9493;51.884;5.188;2022-12-07T08:11:44;3.60;99.90
18729;DHT22;9493;51.884;5.188;2022-12-07T08:14:12;3.60;99.90
18729;DHT22;9493;51.884;5.188;2022-12-07T08:16:39;3.60;99.90
18729;DHT22;9493;51.884;5.188;2022-12-07T08:19:06;3.60;99.90
18729;DHT22;9493;51.884;5.188;2022-12-07T08:21:33;3.60;99.90
18729;DHT22;9493;51.884;5.188;2022-12-07T08:24:00;3.60;99.90
18729;DHT22;9493;51.884;5.188;2022-12-07T08:26:26;3.60;99.90
18729;DHT22;9493;51.884;5.188;2022-12-07T08:28:53;3.50;99.90
18729;DHT22;9493;51.884;5.188;2022-12-07T08:31:22;3.50;99.90
18729;DHT22;9493;51.884;5.188;2022-12-07T08:33:49;3.70;99.90
18729;DHT22;9493;51.884;5.188;2022-12-07T08:36:16;5.00;99.90
18729;DHT22;9493;51.884;5.188;2022-12-07T08:38:43;4.40;99.90
18729;DHT22;9493;51.884;5.188;2022-12-07T08:41:10;6.00;99.90
18729;DHT22;9493;51.884;5.188;2022-12-07T08:43:37;8.00;99.90
18729;DHT22;9493;51.884;5.188;2022-12-07T08:46:08;8.80;99.90
18729;DHT22;9493;51.884;5.188;2022-12-07T08:48:39;8.10;99.90
18729;DHT22;9493;51.884;5.188;2022-12-07T08:51:07;5.90;99.90
18729;DHT22;9493;51.884;5.188;2022-12-07T08:53:35;5.30;99.90
18729;DHT22;9493;51.884;5.188;2022-12-07T08:56:04;4.90;99.90
18729;DHT22;9493;51.884;5.188;2022-12-07T08:58:32;5.00;99.90
18729;DHT22;9493;51.884;5.188;2022-12-07T09:00:59;5.70;99.90
18729;DHT22;9493;51.884;5.188;2022-12-07T09:03:25;7.60;99.90
18729;DHT22;9493;51.884;5.188;2022-12-07T09:05:54;8.30;99.90
18729;DHT22;9493;51.884;5.188;2022-12-07T09:08:21;8.50;99.90
18729;DHT22;9493;51.884;5.188;2022-12-07T09:10:49;7.00;99.90
18729;DHT22;9493;51.884;5.188;2022-12-07T09:13:15;5.70;99.90
18729;DHT22;9493;51.884;5.188;2022-12-07T09:15:42;5.50;99.90
18729;DHT22;9493;51.884;5.188;2022-12-07T09:18:09;5.50;99.90
18729;DHT22;9493;51.884;5.188;2022-12-07T09:20:36;5.30;99.90
18729;DHT22;9493;51.884;5.188;2022-12-07T09:23:05;5.10;99.90
18729;DHT22;9493;51.884;5.188;2022-12-07T09:25:32;5.10;99.90
18729;DHT22;9493;51.884;5.188;2022-12-07T09:27:59;5.10;99.90
18729;DHT22;9493;51.884;5.188;2022-12-07T09:30:27;5.10;99.90
18729;DHT22;9493;51.884;5.188;2022-12-07T09:32:54;5.20;99.90
18729;DHT22;9493;51.884;5.188;2022-12-07T09:35:22;5.10;99.90
18729;DHT22;9493;51.884;5.188;2022-12-07T09:37:50;5.10;99.90
18729;DHT22;9493;51.884;5.188;2022-12-07T09:40:20;5.10;99.90
18729;DHT22;9493;51.884;5.188;2022-12-07T09:42:49;5.20;99.90
18729;DHT22;9493;51.884;5.188;2022-12-07T09:45:19;5.20;99.90
18729;DHT22;9493;51.884;5.188;2022-12-07T09:47:47;6.20;99.90
18729;DHT22;9493;51.884;5.188;2022-12-07T09:50:16;5.80;99.90
18729;DHT22;9493;51.884;5.188;2022-12-07T09:52:46;5.50;99.90
18729;DHT22;9493;51.884;5.188;2022-12-07T09:55:16;5.40;99.90
18729;DHT22;9493;51.884;5.188;2022-12-07T09:57:44;5.90;99.90
18729;DHT22;9493;51.884;5.188;2022-12-07T10:00:13;6.00;99.90
18729;DHT22;9493;51.884;5.188;2022-12-07T10:02:43;6.40;99.90
18729;DHT22;9493;51.884;5.188;2022-12-07T10:05:14;6.40;99.90
18729;DHT22;9493;51.884;5.188;2022-12-07T10:07:42;6.40;99.90
18729;DHT22;9493;51.884;5.188;2022-12-07T10:10:14;6.20;99.90
18729;DHT22;9493;51.884;5.188;2022-12-07T10:12:58;6.20;99.90
18729;DHT22;9493;51.884;5.188;2022-12-07T10:15:41;6.20;99.90
18729;DHT22;9493;51.884;5.188;2022-12-07T10:18:21;6.10;99.90
18729;DHT22;9493;51.884;5.188;2022-12-07T10:21:01;6.10;99.90
18729;DHT22;9493;51.884;5.188;2022-12-07T10:23:29;6.00;99.90
18729;DHT22;9493;51.884;5.188;2022-12-07T10:25:56;6.00;99.90
18729;DHT22;9493;51.884;5.188;2022-12-07T10:28:34;6.10;99.90
18729;DHT22;9493;51.884;5.188;2022-12-07T10:31:15;6.10;99.90
18729;DHT22;9493;51.884;5.188;2022-12-07T10:33:49;6.20;99.90
18729;DHT22;9493;51.884;5.188;2022-12-07T10:36:20;6.30;99.90
18729;DHT22;9493;51.884;5.188;2022-12-07T10:38:50;6.10;99.90
18729;DHT22;9493;51.884;5.188;2022-12-07T10:41:17;6.10;99.90
18729;DHT22;9493;51.884;5.188;2022-12-07T10:43:51;6.20;99.90
18729;DHT22;9493;51.884;5.188;2022-12-07T10:49:43;6.20;99.90
18729;DHT22;9493;51.884;5.188;2022-12-07T10:52:20;6.30;99.90
18729;DHT22;9493;51.884;5.188;2022-12-07T10:55:01;6.20;99.90
18729;DHT22;9493;51.884;5.188;2022-12-07T10:57:41;6.50;99.90
18729;DHT22;9493;51.884;5.188;2022-12-07T11:00:17;6.90;99.90
18729;DHT22;9493;51.884;5.188;2022-12-07T11:05:48;7.30;99.90
18729;DHT22;9493;51.884;5.188;2022-12-07T11:08:21;7.50;99.90
18729;DHT22;9493;51.884;5.188;2022-12-07T11:11:00;7.60;99.90
18729;DHT22;9493;51.884;5.188;2022-12-07T11:13:37;7.90;99.90
18729;DHT22;9493;51.884;5.188;2022-12-07T11:16:26;8.00;99.90
18729;DHT22;9493;51.884;5.188;2022-12-07T11:19:20;8.10;99.90
18729;DHT22;9493;51.884;5.188;2022-12-07T11:21:56;7.70;99.90
18729;DHT22;9493;51.884;5.188;2022-12-07T11:24:30;7.50;99.90
18729;DHT22;9493;51.884;5.188;2022-12-07T11:27:10;7.00;99.90
18729;DHT22;9493;51.884;5.188;2022-12-07T11:30:03;7.10;99.90
18729;DHT22;9493;51.884;5.188;2022-12-07T11:32:53;7.00;99.90
18729;DHT22;9493;51.884;5.188;2022-12-07T11:35:31;6.90;99.90
18729;DHT22;9493;51.884;5.188;2022-12-07T11:38:08;6.80;99.90
18729;DHT22;9493;51.884;5.188;2022-12-07T11:40:36;7.10;99.90
18729;DHT22;9493;51.884;5.188;2022-12-07T11:43:11;7.60;99.90
18729;DHT22;9493;51.884;5.188;2022-12-07T11:45:42;7.50;99.90
18729;DHT22;9493;51.884;5.188;2022-12-07T11:48:15;7.30;99.90
18729;DHT22;9493;51.884;5.188;2022-12-07T11:50:46;7.30;99.90
18729;DHT22;9493;51.884;5.188;2022-12-07T11:53:17;7.40;99.90
18729;DHT22;9493;51.884;5.188;2022-12-07T11:55:54;7.60;99.90
18729;DHT22;9493;51.884;5.188;2022-12-07T12:04:19;7.70;99.90
18729;DHT22;9493;51.884;5.188;2022-12-07T12:06:48;7.70;99.90
18729;DHT22;9493;51.884;5.188;2022-12-07T12:09:18;7.70;99.90
18729;DHT22;9493;51.884;5.188;2022-12-07T12:11:59;7.70;99.90
18729;DHT22;9493;51.884;5.188;2022-12-07T12:14:41;7.80;99.90
18729;DHT22;9493;51.884;5.188;2022-12-07T12:17:40;7.70;99.90
18729;DHT22;9493;51.884;5.188;2022-12-07T12:20:20;7.60;99.90
18729;DHT22;9493;51.884;5.188;2022-12-07T12:22:51;8.00;99.90
18729;DHT22;9493;51.884;5.188;2022-12-07T12:25:21;8.30;99.90
18729;DHT22;9493;51.884;5.188;2022-12-07T12:27:50;8.70;99.90
18729;DHT22;9493;51.884;5.188;2022-12-07T12:30:29;9.00;99.90
18729;DHT22;9493;51.884;5.188;2022-12-07T12:33:02;9.10;99.90
18729;DHT22;9493;51.884;5.188;2022-12-07T12:35:34;8.60;99.90
18729;DHT22;9493;51.884;5.188;2022-12-07T12:38:31;8.40;99.90
18729;DHT22;9493;51.884;5.188;2022-12-07T12:41:00;7.90;99.90
18729;DHT22;9493;51.884;5.188;2022-12-07T12:43:48;7.80;99.90
18729;DHT22;9493;51.884;5.188;2022-12-07T12:46:51;7.80;99.90
18729;DHT22;9493;51.884;5.188;2022-12-07T12:49:43;7.70;99.90
18729;DHT22;9493;51.884;5.188;2022-12-07T12:55:16;7.70;99.90
18729;DHT22;9493;51.884;5.188;2022-12-07T12:57:47;7.70;99.90
18729;DHT22;9493;51.884;5.188;2022-12-07T13:00:18;7.70;99.90
18729;DHT22;9493;51.884;5.188;2022-12-07T13:02:50;7.60;99.90
18729;DHT22;9493;51.884;5.188;2022-12-07T13:05:20;7.40;99.90
18729;DHT22;9493;51.884;5.188;2022-12-07T13:07:58;7.40;99.90
18729;DHT22;9493;51.884;5.188;2022-12-07T13:10:36;7.40;99.90
18729;DHT22;9493;51.884;5.188;2022-12-07T13:15:48;7.20;99.90
18729;DHT22;9493;51.884;5.188;2022-12-07T13:18:24;7.20;99.90
18729;DHT22;9493;51.884;5.188;2022-12-07T13:20:53;7.20;99.90
18729;DHT22;9493;51.884;5.188;2022-12-07T13:23:24;7.10;99.90
18729;DHT22;9493;51.884;5.188;2022-12-07T13:25:55;6.60;99.90
18729;DHT22;9493;51.884;5.188;2022-12-07T13:28:31;6.40;99.90
18729;DHT22;9493;51.884;5.188;2022-12-07T13:33:45;5.80;99.90
18729;DHT22;9493;51.884;5.188;2022-12-07T13:36:19;5.80;99.90
18729;DHT22;9493;51.884;5.188;2022-12-07T13:38:51;5.80;99.90
18729;DHT22;9493;51.884;5.188;2022-12-07T13:41:21;5.70;99.90
18729;DHT22;9493;51.884;5.188;2022-12-07T13:43:52;5.70;99.90
18729;DHT22;9493;51.884;5.188;2022-12-07T13:46:25;5.60;99.90
18729;DHT22;9493;51.884;5.188;2022-12-07T13:48:53;5.70;99.90
18729;DHT22;9493;51.884;5.188;2022-12-07T13:51:34;5.70;99.90
18729;DHT22;9493;51.884;5.188;2022-12-07T13:54:09;5.80;99.90
18729;DHT22;9493;51.884;5.188;2022-12-07T13:56:38;6.50;99.90
18729;DHT22;9493;51.884;5.188;2022-12-07T13:59:12;8.40;99.90
18729;DHT22;9493;51.884;5.188;2022-12-07T14:01:40;9.50;99.90
18729;DHT22;9493;51.884;5.188;2022-12-07T14:04:17;10.10;99.90
18729;DHT22;9493;51.884;5.188;2022-12-07T14:06:49;10.50;99.90
18729;DHT22;9493;51.884;5.188;2022-12-07T14:09:20;10.40;99.90
18729;DHT22;9493;51.884;5.188;2022-12-07T14:11:52;8.90;99.90
18729;DHT22;9493;51.884;5.188;2022-12-07T14:14:22;8.60;99.90
18729;DHT22;9493;51.884;5.188;2022-12-07T14:17:01;7.80;99.90
18729;DHT22;9493;51.884;5.188;2022-12-07T14:19:49;7.10;99.90
18729;DHT22;9493;51.884;5.188;2022-12-07T14:22:27;6.60;99.90
18729;DHT22;9493;51.884;5.188;2022-12-07T14:25:09;6.30;99.90
18729;DHT22;9493;51.884;5.188;2022-12-07T14:27:48;6.40;99.90
18729;DHT22;9493;51.884;5.188;2022-12-07T14:30:16;6.30;99.90
18729;DHT22;9493;51.884;5.188;2022-12-07T14:32:44;6.20;99.90
18729;DHT22;9493;51.884;5.188;2022-12-07T14:35:15;6.20;99.90
18729;DHT22;9493;51.884;5.188;2022-12-07T14:37:44;6.10;99.90
18729;DHT22;9493;51.884;5.188;2022-12-07T14:40:13;6.20;99.90
18729;DHT22;9493;51.884;5.188;2022-12-07T14:42:42;6.10;99.90
18729;DHT22;9493;51.884;5.188;2022-12-07T14:45:14;6.10;99.90
18729;DHT22;9493;51.884;5.188;2022-12-07T14:47:41;6.00;99.90
18729;DHT22;9493;51.884;5.188;2022-12-07T14:50:11;6.10;99.90
18729;DHT22;9493;51.884;5.188;2022-12-07T14:52:38;6.10;99.90
18729;DHT22;9493;51.884;5.188;2022-12-07T14:55:13;6.20;99.90
18729;DHT22;9493;51.884;5.188;2022-12-07T14:57:42;6.20;99.90
18729;DHT22;9493;51.884;5.188;2022-12-07T15:00:13;6.00;99.90
18729;DHT22;9493;51.884;5.188;2022-12-07T15:02:40;5.90;99.90
18729;DHT22;9493;51.884;5.188;2022-12-07T15:05:08;5.90;99.90
18729;DHT22;9493;51.884;5.188;2022-12-07T15:07:34;5.90;99.90
18729;DHT22;9493;51.884;5.188;2022-12-07T15:10:01;5.90;99.90
18729;DHT22;9493;51.884;5.188;2022-12-07T15:12:28;5.80;99.90
18729;DHT22;9493;51.884;5.188;2022-12-07T15:14:56;5.80;99.90
18729;DHT22;9493;51.884;5.188;2022-12-07T15:17:23;5.70;99.90
18729;DHT22;9493;51.884;5.188;2022-12-07T15:19:50;5.70;99.90
18729;DHT22;9493;51.884;5.188;2022-12-07T15:22:16;5.70;99.90
18729;DHT22;9493;51.884;5.188;2022-12-07T15:24:43;5.70;99.90
18729;DHT22;9493;51.884;5.188;2022-12-07T15:27:10;5.60;99.90
18729;DHT22;9493;51.884;5.188;2022-12-07T15:29:36;5.50;99.90
18729;DHT22;9493;51.884;5.188;2022-12-07T15:32:05;5.50;99.90
18729;DHT22;9493;51.884;5.188;2022-12-07T15:34:32;5.50;99.90
18729;DHT22;9493;51.884;5.188;2022-12-07T15:36:59;5.40;99.90
18729;DHT22;9493;51.884;5.188;2022-12-07T15:39:26;5.40;99.90
18729;DHT22;9493;51.884;5.188;2022-12-07T15:41:53;5.40;99.90
18729;DHT22;9493;51.884;5.188;2022-12-07T15:44:19;5.30;99.90
18729;DHT22;9493;51.884;5.188;2022-12-07T15:47:05;5.20;99.90
18729;DHT22;9493;51.884;5.188;2022-12-07T15:49:32;5.20;99.90
18729;DHT22;9493;51.884;5.188;2022-12-07T15:51:59;5.20;99.90
18729;DHT22;9493;51.884;5.188;2022-12-07T15:54:27;5.20;99.90
18729;DHT22;9493;51.884;5.188;2022-12-07T15:56:55;5.10;99.90
18729;DHT22;9493;51.884;5.188;2022-12-07T15:59:22;5.20;99.90
18729;DHT22;9493;51.884;5.188;2022-12-07T16:01:49;5.20;99.90
18729;DHT22;9493;51.884;5.188;2022-12-07T16:04:17;5.10;99.90
18729;DHT22;9493;51.884;5.188;2022-12-07T16:06:44;5.10;99.90
18729;DHT22;9493;51.884;5.188;2022-12-07T16:09:11;5.00;99.90
18729;DHT22;9493;51.884;5.188;2022-12-07T16:11:37;5.00;99.90
18729;DHT22;9493;51.884;5.188;2022-12-07T16:14:04;5.00;99.90
18729;DHT22;9493;51.884;5.188;2022-12-07T16:16:31;5.00;99.90
18729;DHT22;9493;51.884;5.188;2022-12-07T16:18:58;4.90;99.90
18729;DHT22;9493;51.884;5.188;2022-12-07T16:21:26;5.00;99.90
18729;DHT22;9493;51.884;5.188;2022-12-07T16:23:53;5.00;99.90
18729;DHT22;9493;51.884;5.188;2022-12-07T16:28:49;4.90;99.90
18729;DHT22;9493;51.884;5.188;2022-12-07T16:31:17;4.80;99.90
18729;DHT22;9493;51.884;5.188;2022-12-07T16:33:45;4.80;99.90
18729;DHT22;9493;51.884;5.188;2022-12-07T16:36:13;4.80;99.90
18729;DHT22;9493;51.884;5.188;2022-12-07T16:38:43;4.80;99.90
18729;DHT22;9493;51.884;5.188;2022-12-07T16:41:11;4.80;99.90
18729;DHT22;9493;51.884;5.188;2022-12-07T16:43:38;4.70;99.90
18729;DHT22;9493;51.884;5.188;2022-12-07T16:46:05;4.60;99.90
18729;DHT22;9493;51.884;5.188;2022-12-07T16:48:36;4.60;99.90
18729;DHT22;9493;51.884;5.188;2022-12-07T16:51:04;4.50;99.90
18729;DHT22;9493;51.884;5.188;2022-12-07T16:53:31;4.60;99.90
18729;DHT22;9493;51.884;5.188;2022-12-07T16:56:00;4.60;99.90
18729;DHT22;9493;51.884;5.188;2022-12-07T16:58:27;4.60;99.90
18729;DHT22;9493;51.884;5.188;2022-12-07T17:00:54;4.90;99.90
18729;DHT22;9493;51.884;5.188;2022-12-07T17:03:21;4.70;99.90
18729;DHT22;9493;51.884;5.188;2022-12-07T17:05:51;4.60;99.90
18729;DHT22;9493;51.884;5.188;2022-12-07T17:08:18;4.90;99.90
18729;DHT22;9493;51.884;5.188;2022-12-07T17:10:45;4.70;99.90
18729;DHT22;9493;51.884;5.188;2022-12-07T17:13:14;4.70;99.90
18729;DHT22;9493;51.884;5.188;2022-12-07T17:15:59;4.60;99.90
18729;DHT22;9493;51.884;5.188;2022-12-07T17:18:29;4.70;99.90
18729;DHT22;9493;51.884;5.188;2022-12-07T17:21:02;4.60;99.90
18729;DHT22;9493;51.884;5.188;2022-12-07T17:23:29;4.60;99.90
18729;DHT22;9493;51.884;5.188;2022-12-07T17:25:55;4.70;99.90
18729;DHT22;9493;51.884;5.188;2022-12-07T17:28:24;4.80;99.90
18729;DHT22;9493;51.884;5.188;2022-12-07T17:30:50;4.60;99.90
18729;DHT22;9493;51.884;5.188;2022-12-07T17:33:17;4.60;99.90
18729;DHT22;9493;51.884;5.188;2022-12-07T17:35:45;4.50;99.90
18729;DHT22;9493;51.884;5.188;2022-12-07T17:38:13;4.80;99.90
18729;DHT22;9493;51.884;5.188;2022-12-07T17:40:40;4.60;99.90
18729;DHT22;9493;51.884;5.188;2022-12-07T17:43:06;4.50;99.90
18729;DHT22;9493;51.884;5.188;2022-12-07T17:45:36;4.50;99.90
18729;DHT22;9493;51.884;5.188;2022-12-07T17:48:03;4.50;99.90
18729;DHT22;9493;51.884;5.188;2022-12-07T17:50:30;4.50;99.90
18729;DHT22;9493;51.884;5.188;2022-12-07T17:53:14;4.50;99.90
18729;DHT22;9493;51.884;5.188;2022-12-07T17:55:41;4.50;99.90
18729;DHT22;9493;51.884;5.188;2022-12-07T17:58:08;4.50;99.90
18729;DHT22;9493;51.884;5.188;2022-12-07T18:00:36;4.40;99.90
18729;DHT22;9493;51.884;5.188;2022-12-07T18:03:05;4.40;99.90
18729;DHT22;9493;51.884;5.188;2022-12-07T18:05:34;4.40;99.90
18729;DHT22;9493;51.884;5.188;2022-12-07T18:08:01;4.40;99.90
18729;DHT22;9493;51.884;5.188;2022-12-07T18:10:28;4.40;99.90
18729;DHT22;9493;51.884;5.188;2022-12-07T18:12:55;4.50;99.90
18729;DHT22;9493;51.884;5.188;2022-12-07T18:15:43;4.50;99.90
18729;DHT22;9493;51.884;5.188;2022-12-07T18:18:10;4.50;99.90
18729;DHT22;9493;51.884;5.188;2022-12-07T18:20:37;4.40;99.90
18729;DHT22;9493;51.884;5.188;2022-12-07T18:23:03;4.50;99.90
18729;DHT22;9493;51.884;5.188;2022-12-07T18:25:30;4.40;99.90
18729;DHT22;9493;51.884;5.188;2022-12-07T18:27:57;4.40;99.90
18729;DHT22;9493;51.884;5.188;2022-12-07T18:30:24;4.40;99.90
18729;DHT22;9493;51.884;5.188;2022-12-07T18:32:52;4.40;99.90
18729;DHT22;9493;51.884;5.188;2022-12-07T18:35:19;4.40;99.90
18729;DHT22;9493;51.884;5.188;2022-12-07T18:37:46;4.40;99.90
18729;DHT22;9493;51.884;5.188;2022-12-07T18:40:13;4.40;99.90
18729;DHT22;9493;51.884;5.188;2022-12-07T18:42:40;4.50;99.90
18729;DHT22;9493;51.884;5.188;2022-12-07T18:45:07;4.50;99.90
18729;DHT22;9493;51.884;5.188;2022-12-07T18:47:34;4.60;99.90
18729;DHT22;9493;51.884;5.188;2022-12-07T18:50:03;4.60;99.90
18729;DHT22;9493;51.884;5.188;2022-12-07T18:52:30;4.70;99.90
18729;DHT22;9493;51.884;5.188;2022-12-07T18:54:57;4.70;99.90
18729;DHT22;9493;51.884;5.188;2022-12-07T18:57:25;4.70;99.90
18729;DHT22;9493;51.884;5.188;2022-12-07T18:59:52;4.70;99.90
18729;DHT22;9493;51.884;5.188;2022-12-07T19:02:19;4.70;99.90
18729;DHT22;9493;51.884;5.188;2022-12-07T19:04:46;4.70;99.90
18729;DHT22;9493;51.884;5.188;2022-12-07T19:07:15;4.70;99.90
18729;DHT22;9493;51.884;5.188;2022-12-07T19:09:43;4.70;99.90
18729;DHT22;9493;51.884;5.188;2022-12-07T19:12:11;4.60;99.90
18729;DHT22;9493;51.884;5.188;2022-12-07T19:14:38;4.60;99.90
18729;DHT22;9493;51.884;5.188;2022-12-07T19:17:07;4.60;99.90
18729;DHT22;9493;51.884;5.188;2022-12-07T19:19:35;4.60;99.90
18729;DHT22;9493;51.884;5.188;2022-12-07T19:22:03;4.60;99.90
18729;DHT22;9493;51.884;5.188;2022-12-07T19:24:31;4.60;99.90
18729;DHT22;9493;51.884;5.188;2022-12-07T19:26:59;4.70;99.90
18729;DHT22;9493;51.884;5.188;2022-12-07T19:29:28;4.70;99.90
18729;DHT22;9493;51.884;5.188;2022-12-07T19:31:55;4.80;99.90
18729;DHT22;9493;51.884;5.188;2022-12-07T19:34:22;4.70;99.90
18729;DHT22;9493;51.884;5.188;2022-12-07T19:36:49;4.70;99.90
18729;DHT22;9493;51.884;5.188;2022-12-07T19:39:16;4.60;99.90
18729;DHT22;9493;51.884;5.188;2022-12-07T19:41:45;4.60;99.90
18729;DHT22;9493;51.884;5.188;2022-12-07T19:44:14;4.70;99.90
18729;DHT22;9493;51.884;5.188;2022-12-07T19:46:42;4.60;99.90
18729;DHT22;9493;51.884;5.188;2022-12-07T19:49:10;4.70;99.90